^^
Saratoga-Weather Station Historical Data
Daily Summary for May 22, 2022 Units:  Both    English   Metric
Daily Weekly Monthly Yearly Custom
  High: Low: Average:
Temperature: 74.7 °F /  23.7 °C 49.1 °F /  9.5 °C 62.8 °F /  17.1 °C
Dew Point: 58.8 °F /  14.9 °C 44.4 °F /  6.9 °C 51.8 °F /  11 °C
Humidity: 92% 36% 70%
Wind Speed: 6mph /  9.7km/h - 0.6mph /  0.9km/h
Wind Gust: 9mph /  14.5km/h - -
Wind- - SSE
Pressure: 30.1 in /  1018.6 hPa 29.8 in /  1007.5 hPa -
Precipitation: 0 in /  0.0 mm    
Historical Graphs
 
 
Tabular Data for May 22, 2022
Time Temperature Dew Point Pressure Wind Wind Speed Wind Gust Humidity Rainfall Rate (Hourly) solar
00:01 57.6 °F /  14.2 °C 49.6 °F /  9.8 °C 30.1in /  1018.6hPa Calm     75% 0in /  0.0mm 0 W/m2
00:06 57.6 °F /  14.2 °C 49.6 °F /  9.8 °C 30.1in /  1018.3hPa Calm     75% 0in /  0.0mm 0 W/m2
00:11 57.4 °F /  14.1 °C 49.5 °F /  9.7 °C 30.1in /  1018.3hPa Calm     75% 0in /  0.0mm 0 W/m2
00:16 57 °F /  13.9 °C 49.1 °F /  9.5 °C 30.1in /  1018.3hPa Calm     75% 0in /  0.0mm 0 W/m2
00:21 56.8 °F /  13.8 °C 49.3 °F /  9.6 °C 30.1in /  1018.3hPa Calm     76% 0in /  0.0mm 0 W/m2
00:26 56.7 °F /  13.7 °C 49.1 °F /  9.5 °C 30.1in /  1018.3hPa Calm     76% 0in /  0.0mm 0 W/m2
00:31 56.5 °F /  13.6 °C 49.3 °F /  9.6 °C 30.1in /  1018.3hPa Calm     77% 0in /  0.0mm 0 W/m2
00:36 56.3 °F /  13.5 °C 49.1 °F /  9.5 °C 30.1in /  1018.3hPa Calm     77% 0in /  0.0mm 0 W/m2
00:41 56.1 °F /  13.4 °C 48.9 °F /  9.4 °C 30.1in /  1018.3hPa Calm     77% 0in /  0.0mm 0 W/m2
00:46 56.1 °F /  13.4 °C 48.9 °F /  9.4 °C 30.1in /  1018.3hPa Calm     77% 0in /  0.0mm 0 W/m2
00:51 55.9 °F /  13.3 °C 49.1 °F /  9.5 °C 30.1in /  1018.3hPa Calm     78% 0in /  0.0mm 0 W/m2
00:56 55.8 °F /  13.2 °C 48.9 °F /  9.4 °C 30.1in /  1018.3hPa Calm     78% 0in /  0.0mm 0 W/m2
01:01 55.6 °F /  13.1 °C 49.1 °F /  9.5 °C 30.1in /  1018.0hPa Calm     79% 0in /  0.0mm 0 W/m2
01:06 55.4 °F /  13 °C 48.9 °F /  9.4 °C 30.1in /  1018.0hPa Calm     79% 0in /  0.0mm 0 W/m2
01:11 55.2 °F /  12.9 °C 49.1 °F /  9.5 °C 30.1in /  1018.0hPa Calm     80% 0in /  0.0mm 0 W/m2
01:16 55 °F /  12.8 °C 48.9 °F /  9.4 °C 30.1in /  1018.0hPa Calm     80% 0in /  0.0mm 0 W/m2
01:21 54.9 °F /  12.7 °C 49.1 °F /  9.5 °C 30.1in /  1018.0hPa Calm     81% 0in /  0.0mm 0 W/m2
01:26 54.7 °F /  12.6 °C 48.9 °F /  9.4 °C 30.1in /  1018.0hPa Calm     81% 0in /  0.0mm 0 W/m2
01:31 54.5 °F /  12.5 °C 48.7 °F /  9.3 °C 30.1in /  1018.0hPa Calm     81% 0in /  0.0mm 0 W/m2
01:36 54.3 °F /  12.4 °C 48.6 °F /  9.2 °C 30.1in /  1018.0hPa Calm     81% 0in /  0.0mm 0 W/m2
01:41 54.1 °F /  12.3 °C 48.7 °F /  9.3 °C 30.1in /  1018.0hPa Calm     82% 0in /  0.0mm 0 W/m2
01:46 54 °F /  12.2 °C 48.6 °F /  9.2 °C 30.1in /  1018.0hPa Calm     82% 0in /  0.0mm 0 W/m2
01:51 54 °F /  12.2 °C 48.9 °F /  9.4 °C 30.1in /  1018.0hPa Calm     83% 0in /  0.0mm 0 W/m2
01:56 53.8 °F /  12.1 °C 48.7 °F /  9.3 °C 30.1in /  1017.6hPa Calm   1mph /  1.6km/h 83% 0in /  0.0mm 0 W/m2
02:01 53.6 °F /  12 °C 48.6 °F /  9.2 °C 30.1in /  1018.0hPa Calm     83% 0in /  0.0mm 0 W/m2
02:06 53.4 °F /  11.9 °C 48.4 °F /  9.1 °C 30.1in /  1017.6hPa Calm     83% 0in /  0.0mm 0 W/m2
02:11 53.4 °F /  11.9 °C 48.4 °F /  9.1 °C 30.1in /  1017.6hPa Calm   1mph /  1.6km/h 83% 0in /  0.0mm 0 W/m2
02:16 53.2 °F /  11.8 °C 48.6 °F /  9.2 °C 30.1in /  1017.6hPa Calm     84% 0in /  0.0mm 0 W/m2
02:21 53.2 °F /  11.8 °C 48.6 °F /  9.2 °C 30.1in /  1017.6hPa Calm   1mph /  1.6km/h 84% 0in /  0.0mm 0 W/m2
02:26 53.1 °F /  11.7 °C 48.4 °F /  9.1 °C 30.1in /  1017.6hPa Calm     84% 0in /  0.0mm 0 W/m2
02:31 53.1 °F /  11.7 °C 48.4 °F /  9.1 °C 30.1in /  1017.6hPa Calm     84% 0in /  0.0mm 0 W/m2
02:36 52.9 °F /  11.6 °C 48.2 °F /  9 °C 30.1in /  1017.6hPa Calm     84% 0in /  0.0mm 0 W/m2
02:41 52.9 °F /  11.6 °C 48.6 °F /  9.2 °C 30.1in /  1017.6hPa Calm     85% 0in /  0.0mm 0 W/m2
02:46 52.7 °F /  11.5 °C 48.4 °F /  9.1 °C 30.1in /  1017.6hPa Calm     85% 0in /  0.0mm 0 W/m2
02:51 52.5 °F /  11.4 °C 48.2 °F /  9 °C 30in /  1017.3hPa Calm     85% 0in /  0.0mm 0 W/m2
02:56 52.5 °F /  11.4 °C 48.2 °F /  9 °C 30in /  1017.3hPa Calm     85% 0in /  0.0mm 0 W/m2
03:01 52.5 °F /  11.4 °C 48.4 °F /  9.1 °C 30in /  1017.3hPa Calm     86% 0in /  0.0mm 0 W/m2
03:06 52.3 °F /  11.3 °C 48.2 °F /  9 °C 30in /  1017.3hPa Calm     86% 0in /  0.0mm 0 W/m2
03:11 52.3 °F /  11.3 °C 48.2 °F /  9 °C 30in /  1017.3hPa Calm     86% 0in /  0.0mm 0 W/m2
03:16 52.2 °F /  11.2 °C 48 °F /  8.9 °C 30in /  1017.3hPa Calm     86% 0in /  0.0mm 0 W/m2
03:21 52 °F /  11.1 °C 47.8 °F /  8.8 °C 30in /  1017.3hPa Calm     86% 0in /  0.0mm 0 W/m2
03:26 51.8 °F /  11 °C 48 °F /  8.9 °C 30in /  1016.9hPa Calm     87% 0in /  0.0mm 0 W/m2
03:31 51.6 °F /  10.9 °C 47.5 °F /  8.6 °C 30in /  1016.9hPa Calm     86% 0in /  0.0mm 0 W/m2
03:36 51.6 °F /  10.9 °C 47.8 °F /  8.8 °C 30in /  1016.9hPa Calm     87% 0in /  0.0mm 0 W/m2
03:41 51.4 °F /  10.8 °C 47.7 °F /  8.7 °C 30in /  1016.9hPa Calm     87% 0in /  0.0mm 0 W/m2
03:46 51.4 °F /  10.8 °C 47.7 °F /  8.7 °C 30in /  1016.9hPa Calm     87% 0in /  0.0mm 0 W/m2
03:51 51.3 °F /  10.7 °C 47.5 °F /  8.6 °C 30in /  1016.9hPa Calm     87% 0in /  0.0mm 0 W/m2
03:56 51.1 °F /  10.6 °C 47.7 °F /  8.7 °C 30in /  1016.9hPa Calm     88% 0in /  0.0mm 0 W/m2
04:01 50.9 °F /  10.5 °C 47.5 °F /  8.6 °C 30in /  1016.9hPa Calm     88% 0in /  0.0mm 0 W/m2
04:06 50.7 °F /  10.4 °C 47.3 °F /  8.5 °C 30in /  1016.9hPa Calm   1mph /  1.6km/h 88% 0in /  0.0mm 0 W/m2
04:11 50.7 °F /  10.4 °C 47.3 °F /  8.5 °C 30in /  1016.9hPa Calm     88% 0in /  0.0mm 0 W/m2
04:16 50.5 °F /  10.3 °C 47.5 °F /  8.6 °C 30in /  1016.9hPa Calm     89% 0in /  0.0mm 0 W/m2
04:21 50.5 °F /  10.3 °C 47.5 °F /  8.6 °C 30in /  1016.9hPa Calm     89% 0in /  0.0mm 0 W/m2
04:26 50.5 °F /  10.3 °C 47.5 °F /  8.6 °C 30in /  1016.9hPa Calm     89% 0in /  0.0mm 0 W/m2
04:31 50.5 °F /  10.3 °C 47.5 °F /  8.6 °C 30in /  1016.6hPa Calm     89% 0in /  0.0mm 0 W/m2
04:36 50.5 °F /  10.3 °C 47.7 °F /  8.7 °C 30in /  1016.6hPa Calm     90% 0in /  0.0mm 0 W/m2
04:41 50.5 °F /  10.3 °C 47.7 °F /  8.7 °C 30in /  1016.6hPa Calm     90% 0in /  0.0mm 0 W/m2
04:46 50.5 °F /  10.3 °C 47.7 °F /  8.7 °C 30in /  1016.6hPa Calm     90% 0in /  0.0mm 0 W/m2
04:51 50.5 °F /  10.3 °C 47.7 °F /  8.7 °C 30in /  1016.6hPa Calm     90% 0in /  0.0mm 0 W/m2
04:56 50.4 °F /  10.2 °C 47.5 °F /  8.6 °C 30in /  1016.6hPa Calm     90% 0in /  0.0mm 0 W/m2
05:01 50.4 °F /  10.2 °C 47.5 °F /  8.6 °C 30in /  1016.3hPa Calm     90% 0in /  0.0mm 0 W/m2
05:06 50.4 °F /  10.2 °C 47.5 °F /  8.6 °C 30in /  1016.3hPa Calm     90% 0in /  0.0mm 0 W/m2
05:11 50.2 °F /  10.1 °C 47.3 °F /  8.5 °C 30in /  1016.3hPa Calm     90% 0in /  0.0mm 0 W/m2
05:16 50.2 °F /  10.1 °C 47.3 °F /  8.5 °C 30in /  1016.3hPa Calm     90% 0in /  0.0mm 0 W/m2
05:21 50 °F /  10 °C 47.1 °F /  8.4 °C 30in /  1016.3hPa Calm     90% 0in /  0.0mm 0 W/m2
05:26 49.8 °F /  9.9 °C 46.9 °F /  8.3 °C 30in /  1016.3hPa Calm     90% 0in /  0.0mm 0 W/m2
05:32 49.6 °F /  9.8 °C 46.8 °F /  8.2 °C 30in /  1016.3hPa Calm     90% 0in /  0.0mm 0 W/m2
05:37 49.6 °F /  9.8 °C 46.8 °F /  8.2 °C 30in /  1016.3hPa Calm     90% 0in /  0.0mm 0 W/m2
05:42 49.5 °F /  9.7 °C 46.6 °F /  8.1 °C 30in /  1016.3hPa Calm     90% 0in /  0.0mm 0 W/m2
05:47 49.5 °F /  9.7 °C 46.9 °F /  8.3 °C 30in /  1016.3hPa Calm     91% 0in /  0.0mm 5 W/m2
05:52 49.5 °F /  9.7 °C 46.9 °F /  8.3 °C 30in /  1016.3hPa Calm     91% 0in /  0.0mm 7 W/m2
05:57 49.3 °F /  9.6 °C 46.8 °F /  8.2 °C 30in /  1016.3hPa Calm     91% 0in /  0.0mm 9 W/m2
06:02 49.3 °F /  9.6 °C 46.8 °F /  8.2 °C 30in /  1015.9hPa Calm     91% 0in /  0.0mm 11 W/m2
06:07 49.3 °F /  9.6 °C 46.8 °F /  8.2 °C 30in /  1015.9hPa Calm     91% 0in /  0.0mm 12 W/m2
06:12 49.1 °F /  9.5 °C 46.6 °F /  8.1 °C 30in /  1015.9hPa Calm     91% 0in /  0.0mm 16 W/m2
06:17 49.1 °F /  9.5 °C 46.9 °F /  8.3 °C 30in /  1015.9hPa Calm     92% 0in /  0.0mm 16 W/m2
06:22 49.3 °F /  9.6 °C 47.1 °F /  8.4 °C 30in /  1015.9hPa Calm     92% 0in /  0.0mm 18 W/m2
06:27 49.5 °F /  9.7 °C 47.3 °F /  8.5 °C 30in /  1015.9hPa Calm     92% 0in /  0.0mm 18 W/m2
06:32 49.5 °F /  9.7 °C 47.3 °F /  8.5 °C 30in /  1015.9hPa Calm     92% 0in /  0.0mm 19 W/m2
06:37 49.5 °F /  9.7 °C 47.3 °F /  8.5 °C 30in /  1015.9hPa Calm     92% 0in /  0.0mm 19 W/m2
06:42 49.5 °F /  9.7 °C 47.3 °F /  8.5 °C 30in /  1015.9hPa Calm     92% 0in /  0.0mm 21 W/m2
06:47 49.5 °F /  9.7 °C 47.3 °F /  8.5 °C 30in /  1015.9hPa Calm     92% 0in /  0.0mm 26 W/m2
06:52 49.5 °F /  9.7 °C 47.3 °F /  8.5 °C 30in /  1016.3hPa Calm     92% 0in /  0.0mm 33 W/m2
06:57 49.6 °F /  9.8 °C 47.5 °F /  8.6 °C 30in /  1016.3hPa Calm     92% 0in /  0.0mm 40 W/m2
07:02 49.6 °F /  9.8 °C 47.5 °F /  8.6 °C 30in /  1016.3hPa Calm     92% 0in /  0.0mm 47 W/m2
07:07 49.8 °F /  9.9 °C 47.7 °F /  8.7 °C 30in /  1016.3hPa Calm     92% 0in /  0.0mm 51 W/m2
07:12 50.2 °F /  10.1 °C 48 °F /  8.9 °C 30in /  1016.3hPa Calm     92% 0in /  0.0mm 86 W/m2
07:17 50.4 °F /  10.2 °C 48.2 °F /  9 °C 30in /  1016.3hPa Calm     92% 0in /  0.0mm 111 W/m2
07:22 50.9 °F /  10.5 °C 48.7 °F /  9.3 °C 30in /  1016.3hPa Calm     92% 0in /  0.0mm 121 W/m2
07:27 51.4 °F /  10.8 °C 49.3 °F /  9.6 °C 30in /  1016.3hPa Calm     92% 0in /  0.0mm 116 W/m2
07:32 52.3 °F /  11.3 °C 49.5 °F /  9.7 °C 30in /  1016.3hPa Calm     90% 0in /  0.0mm 130 W/m2
07:37 53.1 °F /  11.7 °C 49.8 °F /  9.9 °C 30in /  1016.6hPa Calm     89% 0in /  0.0mm 181 W/m2
07:42 54 °F /  12.2 °C 50.2 °F /  10.1 °C 30in /  1016.3hPa Calm     87% 0in /  0.0mm 160 W/m2
07:47 54.5 °F /  12.5 °C 50.4 °F /  10.2 °C 30in /  1016.6hPa Calm     86% 0in /  0.0mm 149 W/m2
07:52 55.2 °F /  12.9 °C 50.7 °F /  10.4 °C 30in /  1016.3hPa Calm   1mph /  1.6km/h 85% 0in /  0.0mm 165 W/m2
07:57 56.5 °F /  13.6 °C 51.4 °F /  10.8 °C 30in /  1016.3hPa Calm     83% 0in /  0.0mm 134 W/m2
08:02 57.2 °F /  14 °C 51.1 °F /  10.6 °C 30in /  1016.3hPa Calm     80% 0in /  0.0mm 204 W/m2
08:07 57.9 °F /  14.4 °C 51.1 °F /  10.6 °C 30in /  1016.3hPa Calm     78% 0in /  0.0mm 188 W/m2
08:12 58.5 °F /  14.7 °C 51.6 °F /  10.9 °C 30in /  1016.3hPa Calm     78% 0in /  0.0mm 185 W/m2
08:17 58.8 °F /  14.9 °C 51.3 °F /  10.7 °C 30in /  1016.3hPa Calm   1mph /  1.6km/h 76% 0in /  0.0mm 84 W/m2
08:22 58.8 °F /  14.9 °C 50.9 °F /  10.5 °C 30in /  1016.3hPa SW 0.9mph /  1.4km/h 2mph /  3.2km/h 75% 0in /  0.0mm 69 W/m2
08:27 58.8 °F /  14.9 °C 51.3 °F /  10.7 °C 30in /  1016.3hPa Calm   1mph /  1.6km/h 76% 0in /  0.0mm 70 W/m2
08:32 59 °F /  15 °C 51.4 °F /  10.8 °C 30in /  1016.3hPa Calm   2mph /  3.2km/h 76% 0in /  0.0mm 69 W/m2
08:37 59.2 °F /  15.1 °C 51.6 °F /  10.9 °C 30in /  1016.3hPa SW 0.9mph /  1.4km/h 1mph /  1.6km/h 76% 0in /  0.0mm 74 W/m2
08:42 60.1 °F /  15.6 °C 52.2 °F /  11.2 °C 30in /  1016.3hPa ENE 2.9mph /  4.7km/h 4mph /  6.4km/h 75% 0in /  0.0mm 79 W/m2
08:47 60.1 °F /  15.6 °C 52.2 °F /  11.2 °C 30in /  1016.3hPa ENE 2mph /  3.2km/h 4mph /  6.4km/h 75% 0in /  0.0mm 84 W/m2
08:52 59.9 °F /  15.5 °C 52 °F /  11.1 °C 30in /  1016.3hPa ENE 2mph /  3.2km/h 3mph /  4.8km/h 75% 0in /  0.0mm 88 W/m2
08:57 60.3 °F /  15.7 °C 52.3 °F /  11.3 °C 30in /  1016.3hPa Calm   1mph /  1.6km/h 75% 0in /  0.0mm 81 W/m2
09:02 60.4 °F /  15.8 °C 52.2 °F /  11.2 °C 30in /  1016.3hPa Calm   3mph /  4.8km/h 74% 0in /  0.0mm 83 W/m2
09:07 60.8 °F /  16 °C 52.5 °F /  11.4 °C 30in /  1015.9hPa NNW 0.9mph /  1.4km/h 1mph /  1.6km/h 74% 0in /  0.0mm 83 W/m2
09:12 61.2 °F /  16.2 °C 52 °F /  11.1 °C 30in /  1015.9hPa Calm   2mph /  3.2km/h 72% 0in /  0.0mm 84 W/m2
09:17 61.3 °F /  16.3 °C 52.7 °F /  11.5 °C 30in /  1015.9hPa East 0.9mph /  1.4km/h 4mph /  6.4km/h 73% 0in /  0.0mm 83 W/m2
09:22 61.7 °F /  16.5 °C 52.5 °F /  11.4 °C 30in /  1015.9hPa East 2mph /  3.2km/h 4mph /  6.4km/h 72% 0in /  0.0mm 79 W/m2
09:27 61.9 °F /  16.6 °C 52.3 °F /  11.3 °C 30in /  1015.9hPa NW 0.9mph /  1.4km/h 1mph /  1.6km/h 71% 0in /  0.0mm 81 W/m2
09:32 62.2 °F /  16.8 °C 53.1 °F /  11.7 °C 30in /  1015.6hPa NE 0.9mph /  1.4km/h 4mph /  6.4km/h 72% 0in /  0.0mm 86 W/m2
09:37 62.2 °F /  16.8 °C 52.3 °F /  11.3 °C 30in /  1015.6hPa NE 0.9mph /  1.4km/h 3mph /  4.8km/h 70% 0in /  0.0mm 95 W/m2
09:42 62.8 °F /  17.1 °C 53.2 °F /  11.8 °C 30in /  1015.6hPa SE 0.9mph /  1.4km/h 4mph /  6.4km/h 71% 0in /  0.0mm 105 W/m2
09:47 63.3 °F /  17.4 °C 53.4 °F /  11.9 °C 30in /  1015.6hPa ENE 0.9mph /  1.4km/h 2mph /  3.2km/h 70% 0in /  0.0mm 116 W/m2
09:52 63.7 °F /  17.6 °C 53.2 °F /  11.8 °C 30in /  1015.6hPa ESE 0.9mph /  1.4km/h 4mph /  6.4km/h 69% 0in /  0.0mm 165 W/m2
09:57 64 °F /  17.8 °C 53.2 °F /  11.8 °C 30in /  1015.6hPa ENE 2mph /  3.2km/h 4mph /  6.4km/h 68% 0in /  0.0mm 120 W/m2
10:02 64.6 °F /  18.1 °C 53.4 °F /  11.9 °C 30in /  1015.2hPa NE 2mph /  3.2km/h 5mph /  8km/h 67% 0in /  0.0mm 213 W/m2
10:07 64.8 °F /  18.2 °C 53.6 °F /  12 °C 30in /  1015.2hPa ENE 2.9mph /  4.7km/h 3mph /  4.8km/h 67% 0in /  0.0mm 559 W/m2
10:12 64.9 °F /  18.3 °C 53.2 °F /  11.8 °C 30in /  1015.2hPa ENE 2mph /  3.2km/h 5mph /  8km/h 66% 0in /  0.0mm 578 W/m2
10:17 65.1 °F /  18.4 °C 53.4 °F /  11.9 °C 30in /  1015.2hPa NW 0.9mph /  1.4km/h 4mph /  6.4km/h 66% 0in /  0.0mm 527 W/m2
10:22 65.3 °F /  18.5 °C 53.6 °F /  12 °C 30in /  1015.2hPa NE 0.9mph /  1.4km/h 4mph /  6.4km/h 66% 0in /  0.0mm 306 W/m2
10:27 65.1 °F /  18.4 °C 53.4 °F /  11.9 °C 30in /  1015.2hPa East 0.9mph /  1.4km/h 4mph /  6.4km/h 66% 0in /  0.0mm 401 W/m2
10:32 65.5 °F /  18.6 °C 53.8 °F /  12.1 °C 30in /  1015.2hPa East 0.9mph /  1.4km/h 1mph /  1.6km/h 66% 0in /  0.0mm 547 W/m2
10:37 65.8 °F /  18.8 °C 54.1 °F /  12.3 °C 30in /  1014.9hPa ENE 2.9mph /  4.7km/h 6mph /  9.7km/h 66% 0in /  0.0mm 522 W/m2
10:42 66 °F /  18.9 °C 53.4 °F /  11.9 °C 30in /  1014.9hPa Calm   2mph /  3.2km/h 64% 0in /  0.0mm 561 W/m2
10:52 66.6 °F /  19.2 °C 54 °F /  12.2 °C 30in /  1014.9hPa ESE 2mph /  3.2km/h 3mph /  4.8km/h 64% 0in /  0.0mm 577 W/m2
10:57 67.1 °F /  19.5 °C 54.1 °F /  12.3 °C 30in /  1014.9hPa NNE 0.9mph /  1.4km/h 3mph /  4.8km/h 63% 0in /  0.0mm 714 W/m2
11:02 67.6 °F /  19.8 °C 53.8 °F /  12.1 °C 30in /  1014.9hPa SE 2.9mph /  4.7km/h 3mph /  4.8km/h 61% 0in /  0.0mm 659 W/m2
11:07 68 °F /  20 °C 53.6 °F /  12 °C 30in /  1014.6hPa WSW 0.9mph /  1.4km/h 2mph /  3.2km/h 60% 0in /  0.0mm 626 W/m2
11:12 68.4 °F /  20.2 °C 54.3 °F /  12.4 °C 30in /  1014.6hPa NE 0.9mph /  1.4km/h 3mph /  4.8km/h 61% 0in /  0.0mm 728 W/m2
11:17 68.9 °F /  20.5 °C 54 °F /  12.2 °C 30in /  1014.6hPa East 2.9mph /  4.7km/h 3mph /  4.8km/h 59% 0in /  0.0mm 737 W/m2
11:22 69.4 °F /  20.8 °C 54 °F /  12.2 °C 30in /  1014.6hPa Calm   2mph /  3.2km/h 58% 0in /  0.0mm 700 W/m2
11:27 69.4 °F /  20.8 °C 53.6 °F /  12 °C 30in /  1014.2hPa ENE 0.9mph /  1.4km/h 4mph /  6.4km/h 57% 0in /  0.0mm 761 W/m2
11:32 69.6 °F /  20.9 °C 53.8 °F /  12.1 °C 30in /  1014.2hPa SE 0.9mph /  1.4km/h 4mph /  6.4km/h 57% 0in /  0.0mm 773 W/m2
11:37 69.8 °F /  21 °C 54 °F /  12.2 °C 30in /  1014.2hPa ENE 2.9mph /  4.7km/h 3mph /  4.8km/h 57% 0in /  0.0mm 759 W/m2
11:42 70 °F /  21.1 °C 53.1 °F /  11.7 °C 30in /  1014.2hPa ENE 0.9mph /  1.4km/h 4mph /  6.4km/h 55% 0in /  0.0mm 726 W/m2
11:47 69.6 °F /  20.9 °C 52.7 °F /  11.5 °C 29.9in /  1013.9hPa Calm   2mph /  3.2km/h 55% 0in /  0.0mm 770 W/m2
11:52 69.8 °F /  21 °C 52.9 °F /  11.6 °C 29.9in /  1013.9hPa NW 2mph /  3.2km/h 5mph /  8km/h 55% 0in /  0.0mm 777 W/m2
11:57 70 °F /  21.1 °C 53.1 °F /  11.7 °C 29.9in /  1013.5hPa NE 0.9mph /  1.4km/h 6mph /  9.7km/h 55% 0in /  0.0mm 798 W/m2
12:02 70.2 °F /  21.2 °C 52.2 °F /  11.2 °C 29.9in /  1013.9hPa ESE 0.9mph /  1.4km/h 8mph /  12.9km/h 53% 0in /  0.0mm 805 W/m2
12:07 70.5 °F /  21.4 °C 52.5 °F /  11.4 °C 29.9in /  1013.5hPa Calm   3mph /  4.8km/h 53% 0in /  0.0mm 751 W/m2
12:12 70.7 °F /  21.5 °C 51.1 °F /  10.6 °C 29.9in /  1013.5hPa ESE 4mph /  6.4km/h 9mph /  14.5km/h 50% 0in /  0.0mm 724 W/m2
12:17 70.5 °F /  21.4 °C 50.9 °F /  10.5 °C 29.9in /  1013.5hPa NNW 0.9mph /  1.4km/h 2mph /  3.2km/h 50% 0in /  0.0mm 596 W/m2
12:22 70.5 °F /  21.4 °C 49.8 °F /  9.9 °C 29.9in /  1013.9hPa ESE 0.9mph /  1.4km/h 9mph /  14.5km/h 48% 0in /  0.0mm 752 W/m2
12:27 70.9 °F /  21.6 °C 50.2 °F /  10.1 °C 29.9in /  1013.5hPa ENE 2.9mph /  4.7km/h 3mph /  4.8km/h 48% 0in /  0.0mm 668 W/m2
12:32 71.1 °F /  21.7 °C 49.8 °F /  9.9 °C 29.9in /  1013.5hPa NE 0.9mph /  1.4km/h 3mph /  4.8km/h 47% 0in /  0.0mm 777 W/m2
12:37 71.4 °F /  21.9 °C 49.6 °F /  9.8 °C 29.9in /  1013.5hPa SE 2mph /  3.2km/h 2mph /  3.2km/h 46% 0in /  0.0mm 788 W/m2
12:42 72 °F /  22.2 °C 50.7 °F /  10.4 °C 29.9in /  1013.5hPa WNW 2mph /  3.2km/h 6mph /  9.7km/h 47% 0in /  0.0mm 626 W/m2
12:47 72.1 °F /  22.3 °C 51.4 °F /  10.8 °C 29.9in /  1013.2hPa East 0.9mph /  1.4km/h 4mph /  6.4km/h 48% 0in /  0.0mm 715 W/m2
12:52 72.3 °F /  22.4 °C 51.4 °F /  10.8 °C 29.9in /  1013.2hPa ESE 2.9mph /  4.7km/h 5mph /  8km/h 48% 0in /  0.0mm 761 W/m2
12:57 72.5 °F /  22.5 °C 50.5 °F /  10.3 °C 29.9in /  1013.2hPa NNE 2mph /  3.2km/h 6mph /  9.7km/h 46% 0in /  0.0mm 710 W/m2
13:02 72.7 °F /  22.6 °C 48.9 °F /  9.4 °C 29.9in /  1012.9hPa NE 2mph /  3.2km/h 5mph /  8km/h 43% 0in /  0.0mm 810 W/m2
13:07 72.7 °F /  22.6 °C 49.5 °F /  9.7 °C 29.9in /  1012.9hPa ENE 6mph /  9.7km/h 8mph /  12.9km/h 44% 0in /  0.0mm 800 W/m2
13:12 72.9 °F /  22.7 °C 49.1 °F /  9.5 °C 29.9in /  1012.9hPa Calm   2mph /  3.2km/h 43% 0in /  0.0mm 547 W/m2
13:17 73.2 °F /  22.9 °C 48.7 °F /  9.3 °C 29.9in /  1012.9hPa ENE 4mph /  6.4km/h 7mph /  11.3km/h 42% 0in /  0.0mm 775 W/m2
13:22 73.4 °F /  23 °C 48.9 °F /  9.4 °C 29.9in /  1012.5hPa NNW 2mph /  3.2km/h 4mph /  6.4km/h 42% 0in /  0.0mm 304 W/m2
13:27 73.2 °F /  22.9 °C 48 °F /  8.9 °C 29.9in /  1012.2hPa ESE 2mph /  3.2km/h 5mph /  8km/h 41% 0in /  0.0mm 378 W/m2
13:32 73 °F /  22.8 °C 45.9 °F /  7.7 °C 29.9in /  1012.2hPa NE 2mph /  3.2km/h 7mph /  11.3km/h 38% 0in /  0.0mm 765 W/m2
13:37 73 °F /  22.8 °C 44.4 °F /  6.9 °C 29.9in /  1012.2hPa NW 0.9mph /  1.4km/h 6mph /  9.7km/h 36% 0in /  0.0mm 585 W/m2
13:42 73.2 °F /  22.9 °C 45.3 °F /  7.4 °C 29.9in /  1012.5hPa SE 0.9mph /  1.4km/h 1mph /  1.6km/h 37% 0in /  0.0mm 483 W/m2
13:47 73.6 °F /  23.1 °C 48.4 °F /  9.1 °C 29.9in /  1012.9hPa ENE 2mph /  3.2km/h 4mph /  6.4km/h 41% 0in /  0.0mm 701 W/m2
13:52 73.6 °F /  23.1 °C 47.8 °F /  8.8 °C 29.9in /  1012.9hPa NNE 2mph /  3.2km/h 5mph /  8km/h 40% 0in /  0.0mm 715 W/m2
13:57 73.4 °F /  23 °C 48.2 °F /  9 °C 29.9in /  1012.9hPa NE 2mph /  3.2km/h 6mph /  9.7km/h 41% 0in /  0.0mm 693 W/m2
14:02 73.2 °F /  22.9 °C 48 °F /  8.9 °C 29.9in /  1012.9hPa Calm   2mph /  3.2km/h 41% 0in /  0.0mm 557 W/m2
14:07 73.2 °F /  22.9 °C 48.7 °F /  9.3 °C 29.9in /  1012.9hPa West 0.9mph /  1.4km/h 2mph /  3.2km/h 42% 0in /  0.0mm 471 W/m2
14:12 73 °F /  22.8 °C 48 °F /  8.9 °C 29.9in /  1012.9hPa West 2.9mph /  4.7km/h 3mph /  4.8km/h 41% 0in /  0.0mm 480 W/m2
14:17 73 °F /  22.8 °C 49.3 °F /  9.6 °C 29.9in /  1012.9hPa NNW 2mph /  3.2km/h 4mph /  6.4km/h 43% 0in /  0.0mm 622 W/m2
14:22 73.2 °F /  22.9 °C 48.7 °F /  9.3 °C 29.9in /  1012.9hPa North 2mph /  3.2km/h 5mph /  8km/h 42% 0in /  0.0mm 798 W/m2
14:27 73.2 °F /  22.9 °C 49.5 °F /  9.7 °C 29.9in /  1012.9hPa WNW 2mph /  3.2km/h 3mph /  4.8km/h 43% 0in /  0.0mm 798 W/m2
14:32 73.4 °F /  23 °C 49.5 °F /  9.7 °C 29.9in /  1012.5hPa NNW 0.9mph /  1.4km/h 2mph /  3.2km/h 43% 0in /  0.0mm 663 W/m2
14:37 73.8 °F /  23.2 °C 48.6 °F /  9.2 °C 29.9in /  1012.9hPa NNE 0.9mph /  1.4km/h 4mph /  6.4km/h 41% 0in /  0.0mm 882 W/m2
14:42 73.9 °F /  23.3 °C 49.5 °F /  9.7 °C 29.9in /  1012.5hPa South 0.9mph /  1.4km/h 4mph /  6.4km/h 42% 0in /  0.0mm 905 W/m2
14:47 74.3 °F /  23.5 °C 49.1 °F /  9.5 °C 29.9in /  1012.5hPa ENE 2mph /  3.2km/h 2mph /  3.2km/h 41% 0in /  0.0mm 693 W/m2
14:52 74.7 °F /  23.7 °C 49.5 °F /  9.7 °C 29.9in /  1012.5hPa West 2.9mph /  4.7km/h 4mph /  6.4km/h 41% 0in /  0.0mm 686 W/m2
14:58 74.1 °F /  23.4 °C 48.9 °F /  9.4 °C 29.9in /  1012.5hPa West 0.9mph /  1.4km/h 4mph /  6.4km/h 41% 0in /  0.0mm 603 W/m2
15:03 74.3 °F /  23.5 °C 50.4 °F /  10.2 °C 29.9in /  1012.5hPa ENE 2.9mph /  4.7km/h 3mph /  4.8km/h 43% 0in /  0.0mm 424 W/m2
15:08 74.1 °F /  23.4 °C 50.2 °F /  10.1 °C 29.9in /  1012.5hPa Calm   3mph /  4.8km/h 43% 0in /  0.0mm 278 W/m2
15:13 73.9 °F /  23.3 °C 50.7 °F /  10.4 °C 29.9in /  1012.5hPa SE 0.9mph /  1.4km/h 3mph /  4.8km/h 44% 0in /  0.0mm 241 W/m2
15:18 73.6 °F /  23.1 °C 50.4 °F /  10.2 °C 29.9in /  1012.5hPa NW 2mph /  3.2km/h 3mph /  4.8km/h 44% 0in /  0.0mm 227 W/m2
15:23 73.2 °F /  22.9 °C 50 °F /  10 °C 29.9in /  1012.2hPa Calm   1mph /  1.6km/h 44% 0in /  0.0mm 190 W/m2
15:28 73.2 °F /  22.9 °C 50.5 °F /  10.3 °C 29.9in /  1012.2hPa West 0.9mph /  1.4km/h 1mph /  1.6km/h 45% 0in /  0.0mm 162 W/m2
15:33 72.9 °F /  22.7 °C 50.4 °F /  10.2 °C 29.9in /  1011.9hPa Calm   2mph /  3.2km/h 45% 0in /  0.0mm 146 W/m2
15:38 72.9 °F /  22.7 °C 50.4 °F /  10.2 °C 29.9in /  1011.9hPa WNW 0.9mph /  1.4km/h 1mph /  1.6km/h 45% 0in /  0.0mm 155 W/m2
15:43 72.7 °F /  22.6 °C 51.8 °F /  11 °C 29.9in /  1011.9hPa Calm   1mph /  1.6km/h 48% 0in /  0.0mm 179 W/m2
15:48 72.7 °F /  22.6 °C 52.3 °F /  11.3 °C 29.9in /  1011.9hPa Calm   1mph /  1.6km/h 49% 0in /  0.0mm 185 W/m2
15:53 72.7 °F /  22.6 °C 52.3 °F /  11.3 °C 29.9in /  1011.5hPa West 0.9mph /  1.4km/h 2mph /  3.2km/h 49% 0in /  0.0mm 172 W/m2
15:58 72.5 °F /  22.5 °C 54 °F /  12.2 °C 29.9in /  1011.5hPa West 0.9mph /  1.4km/h 2mph /  3.2km/h 52% 0in /  0.0mm 162 W/m2
16:03 72.3 °F /  22.4 °C 53.8 °F /  12.1 °C 29.9in /  1011.2hPa NE 4.9mph /  7.9km/h 5mph /  8km/h 52% 0in /  0.0mm 137 W/m2
16:08 72.3 °F /  22.4 °C 52.7 °F /  11.5 °C 29.9in /  1011.2hPa East 0.9mph /  1.4km/h 3mph /  4.8km/h 50% 0in /  0.0mm 107 W/m2
16:13 72.3 °F /  22.4 °C 52.2 °F /  11.2 °C 29.9in /  1010.8hPa East 0.9mph /  1.4km/h 4mph /  6.4km/h 49% 0in /  0.0mm 98 W/m2
16:18 72.1 °F /  22.3 °C 54.5 °F /  12.5 °C 29.9in /  1010.8hPa East 2mph /  3.2km/h 3mph /  4.8km/h 54% 0in /  0.0mm 102 W/m2
16:23 71.8 °F /  22.1 °C 54.3 °F /  12.4 °C 29.9in /  1010.8hPa ESE 0.9mph /  1.4km/h 2mph /  3.2km/h 54% 0in /  0.0mm 104 W/m2
16:28 71.6 °F /  22 °C 55.6 °F /  13.1 °C 29.9in /  1010.8hPa Calm   2mph /  3.2km/h 57% 0in /  0.0mm 113 W/m2
16:33 71.4 °F /  21.9 °C 54 °F /  12.2 °C 29.9in /  1010.8hPa Calm   1mph /  1.6km/h 54% 0in /  0.0mm 137 W/m2
16:38 71.2 °F /  21.8 °C 53.8 °F /  12.1 °C 29.9in /  1010.8hPa SW 0.9mph /  1.4km/h 2mph /  3.2km/h 54% 0in /  0.0mm 123 W/m2
16:43 71.1 °F /  21.7 °C 52.5 °F /  11.4 °C 29.9in /  1010.8hPa East 0.9mph /  1.4km/h 3mph /  4.8km/h 52% 0in /  0.0mm 100 W/m2
16:48 71.2 °F /  21.8 °C 54.3 °F /  12.4 °C 29.8in /  1010.5hPa Calm   1mph /  1.6km/h 55% 0in /  0.0mm 58 W/m2
16:53 71.2 °F /  21.8 °C 55.2 °F /  12.9 °C 29.8in /  1010.5hPa Calm   3mph /  4.8km/h 57% 0in /  0.0mm 46 W/m2
16:58 71.1 °F /  21.7 °C 57.4 °F /  14.1 °C 29.9in /  1010.8hPa SE 2mph /  3.2km/h 2mph /  3.2km/h 62% 0in /  0.0mm 49 W/m2
17:03 70.3 °F /  21.3 °C 57.6 °F /  14.2 °C 29.9in /  1010.8hPa Calm   1mph /  1.6km/h 64% 0in /  0.0mm 63 W/m2
17:08 69.8 °F /  21 °C 58.8 °F /  14.9 °C 29.8in /  1010.5hPa SE 2mph /  3.2km/h 2mph /  3.2km/h 68% 0in /  0.0mm 95 W/m2
17:13 68.5 °F /  20.3 °C 57.6 °F /  14.2 °C 29.8in /  1010.5hPa SSW 2mph /  3.2km/h 3mph /  4.8km/h 68% 0in /  0.0mm 142 W/m2
17:18 67.6 °F /  19.8 °C 57.9 °F /  14.4 °C 29.8in /  1010.5hPa Calm   1mph /  1.6km/h 71% 0in /  0.0mm 172 W/m2
17:23 67.5 °F /  19.7 °C 57.7 °F /  14.3 °C 29.8in /  1010.5hPa Calm   3mph /  4.8km/h 71% 0in /  0.0mm 236 W/m2
17:28 67.5 °F /  19.7 °C 57.7 °F /  14.3 °C 29.8in /  1010.5hPa Calm   1mph /  1.6km/h 71% 0in /  0.0mm 265 W/m2
17:33 68.2 °F /  20.1 °C 57.2 °F /  14 °C 29.8in /  1010.5hPa Calm   1mph /  1.6km/h 68% 0in /  0.0mm 503 W/m2
17:38 69.3 °F /  20.7 °C 57.4 °F /  14.1 °C 29.8in /  1010.2hPa Calm   3mph /  4.8km/h 66% 0in /  0.0mm 369 W/m2
17:43 70.3 °F /  21.3 °C 55.8 °F /  13.2 °C 29.8in /  1010.2hPa SE 0.9mph /  1.4km/h 3mph /  4.8km/h 60% 0in /  0.0mm 582 W/m2
17:48 71.4 °F /  21.9 °C 54.9 °F /  12.7 °C 29.8in /  1010.2hPa SE 0.9mph /  1.4km/h 3mph /  4.8km/h 56% 0in /  0.0mm 601 W/m2
17:53 72.1 °F /  22.3 °C 56.1 °F /  13.4 °C 29.8in /  1010.2hPa ENE 0.9mph /  1.4km/h 1mph /  1.6km/h 57% 0in /  0.0mm 221 W/m2
17:58 72.5 °F /  22.5 °C 54.3 °F /  12.4 °C 29.8in /  1010.2hPa East 0.9mph /  1.4km/h 4mph /  6.4km/h 53% 0in /  0.0mm 176 W/m2
18:03 72.5 °F /  22.5 °C 55.4 °F /  13 °C 29.8in /  1010.2hPa Calm   4mph /  6.4km/h 55% 0in /  0.0mm 214 W/m2
18:08 72.5 °F /  22.5 °C 56.5 °F /  13.6 °C 29.8in /  1009.8hPa Calm   1mph /  1.6km/h 57% 0in /  0.0mm 264 W/m2
18:13 72.5 °F /  22.5 °C 54 °F /  12.2 °C 29.8in /  1009.8hPa South 2.9mph /  4.7km/h 4mph /  6.4km/h 52% 0in /  0.0mm 264 W/m2
18:18 72.7 °F /  22.6 °C 54 °F /  12.2 °C 29.8in /  1009.5hPa ENE 2mph /  3.2km/h 5mph /  8km/h 52% 0in /  0.0mm 176 W/m2
18:23 72.5 °F /  22.5 °C 53.4 °F /  11.9 °C 29.8in /  1009.8hPa ESE 0.9mph /  1.4km/h 2mph /  3.2km/h 51% 0in /  0.0mm 128 W/m2
18:28 72.3 °F /  22.4 °C 54.7 °F /  12.6 °C 29.8in /  1009.8hPa Calm   1mph /  1.6km/h 54% 0in /  0.0mm 86 W/m2
18:33 72.1 °F /  22.3 °C 54.1 °F /  12.3 °C 29.8in /  1009.8hPa Calm   2mph /  3.2km/h 53% 0in /  0.0mm 42 W/m2
18:38 72 °F /  22.2 °C 54 °F /  12.2 °C 29.8in /  1009.8hPa NE 0.9mph /  1.4km/h 4mph /  6.4km/h 53% 0in /  0.0mm 53 W/m2
18:43 71.4 °F /  21.9 °C 55.9 °F /  13.3 °C 29.8in /  1009.8hPa SSW 2mph /  3.2km/h 2mph /  3.2km/h 58% 0in /  0.0mm 74 W/m2
18:48 70.9 °F /  21.6 °C 55.8 °F /  13.2 °C 29.8in /  1009.8hPa Calm     59% 0in /  0.0mm 44 W/m2
18:53 70.5 °F /  21.4 °C 56.5 °F /  13.6 °C 29.8in /  1009.5hPa Calm     61% 0in /  0.0mm 42 W/m2
18:58 70.2 °F /  21.2 °C 57 °F /  13.9 °C 29.8in /  1009.1hPa Calm   1mph /  1.6km/h 63% 0in /  0.0mm 56 W/m2
19:03 69.8 °F /  21 °C 56.7 °F /  13.7 °C 29.8in /  1009.1hPa SE 0.9mph /  1.4km/h 2mph /  3.2km/h 63% 0in /  0.0mm 60 W/m2
19:08 69.3 °F /  20.7 °C 55.8 °F /  13.2 °C 29.8in /  1009.5hPa Calm   2mph /  3.2km/h 62% 0in /  0.0mm 40 W/m2
19:13 69.1 °F /  20.6 °C 55.9 °F /  13.3 °C 29.8in /  1009.5hPa Calm   2mph /  3.2km/h 63% 0in /  0.0mm 33 W/m2
19:18 68.7 °F /  20.4 °C 56.1 °F /  13.4 °C 29.8in /  1009.5hPa Calm     64% 0in /  0.0mm 35 W/m2
19:23 68.5 °F /  20.3 °C 56.3 °F /  13.5 °C 29.8in /  1009.5hPa Calm   1mph /  1.6km/h 65% 0in /  0.0mm 37 W/m2
19:28 68.5 °F /  20.3 °C 55.9 °F /  13.3 °C 29.8in /  1009.5hPa Calm     64% 0in /  0.0mm 25 W/m2
19:33 68.4 °F /  20.2 °C 56.1 °F /  13.4 °C 29.8in /  1009.8hPa Calm   1mph /  1.6km/h 65% 0in /  0.0mm 21 W/m2
19:38 68.4 °F /  20.2 °C 57.7 °F /  14.3 °C 29.8in /  1009.5hPa SSW 0.9mph /  1.4km/h 1mph /  1.6km/h 69% 0in /  0.0mm 26 W/m2
19:43 68.2 °F /  20.1 °C 58.8 °F /  14.9 °C 29.8in /  1009.1hPa Calm   1mph /  1.6km/h 72% 0in /  0.0mm 42 W/m2
19:48 67.8 °F /  19.9 °C 58.8 °F /  14.9 °C 29.8in /  1009.1hPa SSW 0.9mph /  1.4km/h 1mph /  1.6km/h 73% 0in /  0.0mm 62 W/m2
19:53 67.5 °F /  19.7 °C 58.8 °F /  14.9 °C 29.8in /  1009.5hPa Calm   1mph /  1.6km/h 74% 0in /  0.0mm 67 W/m2
19:58 66.9 °F /  19.4 °C 58.3 °F /  14.6 °C 29.8in /  1009.1hPa WSW 4mph /  6.4km/h 4mph /  6.4km/h 74% 0in /  0.0mm 39 W/m2
20:03 66.7 °F /  19.3 °C 57.4 °F /  14.1 °C 29.8in /  1009.1hPa WSW 2mph /  3.2km/h 2mph /  3.2km/h 72% 0in /  0.0mm 26 W/m2
20:08 66.7 °F /  19.3 °C 57.4 °F /  14.1 °C 29.8in /  1009.1hPa WSW 0.9mph /  1.4km/h 2mph /  3.2km/h 72% 0in /  0.0mm 26 W/m2
20:13 66.6 °F /  19.2 °C 57.2 °F /  14 °C 29.8in /  1009.1hPa Calm     72% 0in /  0.0mm 28 W/m2
20:18 66.6 °F /  19.2 °C 57.6 °F /  14.2 °C 29.8in /  1009.1hPa Calm   2mph /  3.2km/h 73% 0in /  0.0mm 21 W/m2
20:23 66.4 °F /  19.1 °C 57.9 °F /  14.4 °C 29.8in /  1009.1hPa Calm     74% 0in /  0.0mm 19 W/m2
20:28 66.4 °F /  19.1 °C 57.4 °F /  14.1 °C 29.8in /  1008.8hPa Calm   1mph /  1.6km/h 73% 0in /  0.0mm 12 W/m2
20:33 66.4 °F /  19.1 °C 57.4 °F /  14.1 °C 29.8in /  1008.8hPa Calm   1mph /  1.6km/h 73% 0in /  0.0mm 11 W/m2
20:38 66 °F /  18.9 °C 57.2 °F /  14 °C 29.8in /  1008.8hPa Calm     73% 0in /  0.0mm 9 W/m2
20:43 66 °F /  18.9 °C 57.2 °F /  14 °C 29.8in /  1008.8hPa Calm     73% 0in /  0.0mm 5 W/m2
20:48 66 °F /  18.9 °C 57.2 °F /  14 °C 29.8in /  1008.8hPa Calm   1mph /  1.6km/h 73% 0in /  0.0mm 5 W/m2
20:53 65.8 °F /  18.8 °C 57 °F /  13.9 °C 29.8in /  1008.8hPa Calm     73% 0in /  0.0mm 0 W/m2
20:58 65.8 °F /  18.8 °C 57 °F /  13.9 °C 29.8in /  1008.8hPa Calm   1mph /  1.6km/h 73% 0in /  0.0mm 0 W/m2
21:03 65.7 °F /  18.7 °C 56.8 °F /  13.8 °C 29.8in /  1008.5hPa Calm     73% 0in /  0.0mm 0 W/m2
21:08 65.7 °F /  18.7 °C 56.8 °F /  13.8 °C 29.8in /  1008.5hPa Calm     73% 0in /  0.0mm 0 W/m2
21:13 65.7 °F /  18.7 °C 55.9 °F /  13.3 °C 29.8in /  1008.5hPa Calm     71% 0in /  0.0mm 0 W/m2
21:18 65.5 °F /  18.6 °C 56.3 °F /  13.5 °C 29.8in /  1008.5hPa Calm     72% 0in /  0.0mm 0 W/m2
21:23 65.5 °F /  18.6 °C 56.3 °F /  13.5 °C 29.8in /  1008.1hPa Calm     72% 0in /  0.0mm 0 W/m2
21:28 65.3 °F /  18.5 °C 56.1 °F /  13.4 °C 29.8in /  1008.5hPa Calm   1mph /  1.6km/h 72% 0in /  0.0mm 0 W/m2
21:33 65.3 °F /  18.5 °C 56.5 °F /  13.6 °C 29.8in /  1008.5hPa Calm     73% 0in /  0.0mm 0 W/m2
21:38 65.1 °F /  18.4 °C 56.3 °F /  13.5 °C 29.8in /  1008.5hPa Calm     73% 0in /  0.0mm 0 W/m2
21:43 65.1 °F /  18.4 °C 55.9 °F /  13.3 °C 29.8in /  1008.5hPa Calm     72% 0in /  0.0mm 0 W/m2
21:48 65.1 °F /  18.4 °C 56.3 °F /  13.5 °C 29.8in /  1008.5hPa Calm     73% 0in /  0.0mm 0 W/m2
21:53 65.1 °F /  18.4 °C 56.3 °F /  13.5 °C 29.8in /  1008.5hPa Calm     73% 0in /  0.0mm 0 W/m2
21:58 65.1 °F /  18.4 °C 56.7 °F /  13.7 °C 29.8in /  1008.5hPa Calm     74% 0in /  0.0mm 0 W/m2
22:03 65.1 °F /  18.4 °C 56.7 °F /  13.7 °C 29.8in /  1008.5hPa Calm     74% 0in /  0.0mm 0 W/m2
22:08 64.9 °F /  18.3 °C 56.8 °F /  13.8 °C 29.8in /  1008.5hPa Calm     75% 0in /  0.0mm 0 W/m2
22:13 64.9 °F /  18.3 °C 56.8 °F /  13.8 °C 29.8in /  1008.5hPa Calm     75% 0in /  0.0mm 0 W/m2
22:18 64.8 °F /  18.2 °C 56.3 °F /  13.5 °C 29.8in /  1008.5hPa Calm     74% 0in /  0.0mm 0 W/m2
22:23 64.8 °F /  18.2 °C 56.7 °F /  13.7 °C 29.8in /  1008.5hPa Calm     75% 0in /  0.0mm 0 W/m2
22:28 64.6 °F /  18.1 °C 56.5 °F /  13.6 °C 29.8in /  1008.5hPa Calm     75% 0in /  0.0mm 0 W/m2
22:33 64.6 °F /  18.1 °C 56.8 °F /  13.8 °C 29.8in /  1008.5hPa Calm     76% 0in /  0.0mm 0 W/m2
22:38 64.4 °F /  18 °C 56.7 °F /  13.7 °C 29.8in /  1008.5hPa Calm     76% 0in /  0.0mm 0 W/m2
22:43 64.2 °F /  17.9 °C 56.5 °F /  13.6 °C 29.8in /  1008.5hPa Calm     76% 0in /  0.0mm 0 W/m2
22:48 64 °F /  17.8 °C 56.3 °F /  13.5 °C 29.8in /  1008.5hPa Calm     76% 0in /  0.0mm 0 W/m2
22:53 64 °F /  17.8 °C 55.6 °F /  13.1 °C 29.8in /  1008.1hPa Calm     74% 0in /  0.0mm 0 W/m2
22:58 64 °F /  17.8 °C 55.9 °F /  13.3 °C 29.8in /  1008.1hPa Calm     75% 0in /  0.0mm 0 W/m2
23:03 63.9 °F /  17.7 °C 56.1 °F /  13.4 °C 29.8in /  1008.1hPa Calm     76% 0in /  0.0mm 0 W/m2
23:08 63.7 °F /  17.6 °C 55.9 °F /  13.3 °C 29.8in /  1008.1hPa Calm     76% 0in /  0.0mm 0 W/m2
23:13 63.3 °F /  17.4 °C 55.6 °F /  13.1 °C 29.8in /  1008.1hPa Calm     76% 0in /  0.0mm 0 W/m2
23:18 63.1 °F /  17.3 °C 55.4 °F /  13 °C 29.8in /  1007.8hPa Calm     76% 0in /  0.0mm 0 W/m2
23:23 63 °F /  17.2 °C 55.6 °F /  13.1 °C 29.8in /  1007.8hPa Calm     77% 0in /  0.0mm 0 W/m2
23:28 62.8 °F /  17.1 °C 55.4 °F /  13 °C 29.8in /  1007.8hPa Calm     77% 0in /  0.0mm 0 W/m2
23:33 62.6 °F /  17 °C 55.2 °F /  12.9 °C 29.8in /  1007.5hPa Calm     77% 0in /  0.0mm 0 W/m2
23:38 62.4 °F /  16.9 °C 55.4 °F /  13 °C 29.8in /  1007.5hPa Calm     78% 0in /  0.0mm 0 W/m2
23:43 62.2 °F /  16.8 °C 55.2 °F /  12.9 °C 29.8in /  1007.5hPa Calm     78% 0in /  0.0mm 0 W/m2
23:48 62.2 °F /  16.8 °C 55.2 °F /  12.9 °C 29.8in /  1007.5hPa Calm     78% 0in /  0.0mm 0 W/m2
23:53 62.1 °F /  16.7 °C 55 °F /  12.8 °C 29.8in /  1007.5hPa Calm     78% 0in /  0.0mm 0 W/m2
23:58 62.1 °F /  16.7 °C 55.4 °F /  13 °C 29.8in /  1007.5hPa Calm     79% 0in /  0.0mm 0 W/m2
Juneau County Weather
Compliments of Weather Underground - 4 mb